Guadalupe, California
Current Conditions -  °F | °C
As of 5:58 AM on Friday 24 Oct 2014 (Local Time) from KSMX Reporting Station
Moderate Fog Moderate Fog  
Wind Chill: 55°   Ceiling: 200
Heat Index: 55°   Visibility: 0.25mi
Dew Point: 53°   Wind: 3mph
Humidity: 93%   Direction: 150°SSE
Pressure: 29.99"   Gusts: NA
Location:  34.96°N, 120.57°W
Report Text: KSMX 241258Z 15003KT 1/4SM R12/1800V2600FT FG VV002 13/12 A2999 RMK AO2 T01280117
Loading
Personal Weather Stations






























Interactive Weather Map
Tropical Storm Tracking
New forecast layout! Learn more

10-Day Weather Forecast

Advertisements
Track Severe Weather on mobile